createdAt,value
2017-06-18T00:01:24.732Z,15.20
2017-06-18T00:03:52.317Z,15.30
2017-06-18T00:06:19.848Z,15.40
2017-06-18T00:08:47.391Z,15.30
2017-06-18T00:11:14.981Z,15.30
2017-06-18T00:13:42.520Z,15.30
2017-06-18T00:16:10.059Z,15.40
2017-06-18T00:18:37.631Z,15.60
2017-06-18T00:21:05.152Z,15.60
2017-06-18T00:23:32.891Z,15.60
2017-06-18T00:26:00.447Z,15.50
2017-06-18T00:28:27.963Z,15.50
2017-06-18T00:30:56.248Z,15.50
2017-06-18T00:33:23.807Z,15.40
2017-06-18T00:35:51.329Z,15.50
2017-06-18T00:38:18.860Z,15.30
2017-06-18T00:40:46.424Z,15.40
2017-06-18T00:43:13.931Z,15.30
2017-06-18T00:45:41.446Z,15.30
2017-06-18T00:48:09.040Z,15.20
2017-06-18T00:50:36.605Z,15.30
2017-06-18T00:53:04.883Z,15.50
2017-06-18T00:55:33.266Z,15.40
2017-06-18T00:58:01.551Z,15.30
2017-06-18T01:00:29.828Z,15.10
2017-06-18T01:02:58.180Z,15.00
2017-06-18T01:05:25.742Z,15.00
2017-06-18T01:07:53.258Z,15.10
2017-06-18T01:10:20.896Z,15.20
2017-06-18T01:12:48.413Z,15.30
2017-06-18T01:15:15.921Z,15.30
2017-06-18T01:17:43.495Z,15.40
2017-06-18T01:20:11.022Z,15.40
2017-06-18T01:22:39.309Z,15.30
2017-06-18T01:25:07.644Z,15.20
2017-06-18T01:27:35.174Z,15.10
2017-06-18T01:30:02.745Z,14.90
2017-06-18T01:32:30.344Z,15.00
2017-06-18T01:34:57.859Z,15.00
2017-06-18T01:37:25.371Z,14.90
2017-06-18T01:39:52.927Z,14.80
2017-06-18T01:42:20.458Z,14.80
2017-06-18T01:44:47.987Z,14.80
2017-06-18T01:47:15.551Z,14.80
2017-06-18T01:49:43.080Z,14.70
2017-06-18T01:52:11.376Z,15.10
2017-06-18T01:54:38.959Z,15.00
2017-06-18T01:57:06.480Z,15.20
2017-06-18T01:59:34.763Z,15.10
2017-06-18T02:02:03.084Z,15.20
2017-06-18T02:04:30.681Z,15.10
2017-06-18T02:06:58.197Z,15.20
2017-06-18T02:09:25.771Z,15.20
2017-06-18T02:11:53.284Z,15.20
2017-06-18T02:14:20.799Z,15.10
2017-06-18T02:16:48.483Z,15.30
2017-06-18T02:19:15.997Z,15.40
2017-06-18T02:21:43.545Z,15.20
2017-06-18T02:24:11.114Z,15.30
2017-06-18T02:26:38.628Z,15.10
2017-06-18T02:29:06.139Z,15.10
2017-06-18T02:31:33.695Z,15.00
2017-06-18T02:34:01.212Z,15.10
2017-06-18T02:36:29.496Z,15.10
2017-06-18T02:38:57.836Z,15.10
2017-06-18T02:41:25.353Z,15.00
2017-06-18T02:43:52.888Z,15.00
2017-06-18T02:46:21.524Z,15.10
2017-06-18T02:48:49.040Z,15.00
2017-06-18T02:51:17.317Z,15.20
2017-06-18T02:53:45.644Z,15.20
2017-06-18T02:56:13.163Z,15.10
2017-06-18T02:58:41.441Z,15.10
2017-06-18T03:01:09.757Z,15.10
2017-06-18T03:03:37.285Z,15.00
2017-06-18T03:06:04.796Z,15.00
2017-06-18T03:08:32.352Z,14.80
2017-06-18T03:10:59.873Z,14.80
2017-06-18T03:13:27.387Z,14.80
2017-06-18T03:15:55.036Z,15.00
2017-06-18T03:18:22.572Z,14.90
2017-06-18T03:20:50.089Z,15.20
2017-06-18T03:23:24.171Z,15.20
2017-06-18T03:25:51.684Z,15.10
2017-06-18T03:28:19.217Z,15.10
2017-06-18T03:30:47.536Z,15.10
2017-06-18T03:33:15.060Z,15.10
2017-06-18T03:35:43.344Z,15.20
2017-06-18T03:38:10.924Z,15.10
2017-06-18T03:40:38.457Z,15.20
2017-06-18T03:43:43.560Z,15.30
2017-06-18T03:46:11.059Z,15.20
2017-06-18T03:48:39.332Z,14.90
2017-06-18T03:51:07.700Z,14.80
2017-06-18T03:53:35.227Z,14.80
2017-06-18T03:56:02.761Z,14.90
2017-06-18T03:58:30.320Z,15.10
2017-06-18T04:00:57.832Z,15.10
2017-06-18T04:03:25.348Z,15.30
2017-06-18T04:05:52.903Z,15.30
2017-06-18T04:08:20.444Z,15.20
2017-06-18T04:10:47.968Z,15.20
2017-06-18T04:13:15.529Z,15.30
2017-06-18T04:15:43.038Z,15.20
2017-06-18T04:18:10.559Z,15.20
2017-06-18T04:20:38.111Z,14.90
2017-06-18T04:23:05.710Z,14.90
2017-06-18T04:25:33.224Z,14.70
2017-06-18T04:28:00.815Z,14.70
2017-06-18T04:30:29.101Z,15.30
2017-06-18T04:32:57.455Z,15.70
2017-06-18T04:35:25.048Z,15.60
2017-06-18T04:37:52.564Z,16.00
2017-06-18T04:40:20.078Z,16.00
2017-06-18T04:42:47.651Z,16.00
2017-06-18T04:45:15.187Z,16.30
2017-06-18T04:47:42.759Z,16.20
2017-06-18T04:50:10.316Z,16.20
2017-06-18T04:52:37.832Z,16.20
2017-06-18T04:55:05.344Z,16.40
2017-06-18T04:57:32.952Z,16.40
2017-06-18T05:00:00.467Z,16.10
2017-06-18T05:02:27.987Z,16.00
2017-06-18T05:04:56.309Z,15.80
2017-06-18T05:07:23.815Z,15.80
2017-06-18T05:09:51.331Z,15.90
2017-06-18T05:12:18.912Z,16.00
2017-06-18T05:14:46.432Z,15.90
2017-06-18T05:17:13.961Z,16.00
2017-06-18T05:19:41.781Z,16.00
2017-06-18T05:22:09.320Z,16.20
2017-06-18T05:24:36.848Z,16.50
2017-06-18T05:27:05.228Z,16.30
2017-06-18T05:29:32.749Z,16.20
2017-06-18T05:32:00.268Z,16.40
2017-06-18T05:34:27.828Z,16.70
2017-06-18T05:36:56.125Z,17.20
2017-06-18T05:39:23.632Z,17.10
2017-06-18T05:41:51.196Z,17.40
2017-06-18T05:44:18.702Z,17.30
2017-06-18T05:46:46.211Z,17.30
2017-06-18T05:49:13.803Z,17.30
2017-06-18T05:51:41.319Z,17.30
2017-06-18T05:54:08.838Z,17.20
2017-06-18T05:56:36.395Z,17.50
2017-06-18T05:59:03.907Z,17.70
2017-06-18T06:01:31.424Z,18.00
2017-06-18T06:03:59.014Z,18.00
2017-06-18T06:06:26.528Z,18.20
2017-06-18T06:08:54.034Z,18.70
2017-06-18T06:11:21.584Z,18.70
2017-06-18T06:13:49.119Z,18.40
2017-06-18T06:16:16.633Z,18.60
2017-06-18T06:18:44.188Z,18.60
2017-06-18T06:21:11.739Z,18.90
2017-06-18T06:23:39.247Z,19.20
2017-06-18T06:26:06.828Z,19.40
2017-06-18T06:28:34.414Z,19.60
2017-06-18T06:31:01.946Z,19.50
2017-06-18T06:33:29.512Z,19.40
2017-06-18T06:35:57.031Z,19.50
2017-06-18T06:38:25.316Z,19.70
2017-06-18T06:40:53.672Z,19.70
2017-06-18T06:43:21.185Z,19.70
2017-06-18T06:45:48.712Z,19.20
2017-06-18T06:48:17.329Z,18.90
2017-06-18T06:50:44.855Z,18.90
2017-06-18T06:53:13.134Z,18.80
2017-06-18T06:55:41.459Z,18.70
2017-06-18T06:58:08.972Z,18.70
2017-06-18T07:00:37.255Z,19.30
2017-06-18T07:03:04.841Z,19.30
2017-06-18T07:05:32.358Z,19.40
2017-06-18T07:08:00.646Z,19.80
2017-06-18T07:10:28.975Z,20.20
2017-06-18T07:12:56.494Z,20.10
2017-06-18T07:15:24.773Z,19.70
2017-06-18T07:17:52.327Z,19.60
2017-06-18T07:20:19.834Z,19.30
2017-06-18T07:22:47.353Z,18.90
2017-06-18T07:25:14.929Z,18.60
2017-06-18T07:27:42.448Z,18.70
2017-06-18T07:30:09.961Z,19.00
2017-06-18T07:32:37.517Z,19.50
2017-06-18T07:35:05.046Z,20.00
2017-06-18T07:37:33.327Z,21.10
2017-06-18T07:40:00.902Z,21.00
2017-06-18T07:42:29.362Z,21.40
2017-06-18T07:44:56.933Z,21.00
2017-06-18T07:47:24.531Z,21.20
2017-06-18T07:49:52.058Z,21.20
2017-06-18T07:52:19.603Z,21.40
2017-06-18T07:54:47.183Z,21.50
2017-06-18T07:57:14.710Z,22.00
2017-06-18T07:59:42.991Z,22.50
2017-06-18T08:02:11.315Z,22.70
2017-06-18T08:04:38.896Z,22.70
2017-06-18T08:07:06.479Z,23.00
2017-06-18T08:09:34.032Z,23.40
2017-06-18T08:12:01.548Z,23.60
2017-06-18T08:14:29.104Z,23.60
2017-06-18T08:16:56.664Z,23.10
2017-06-18T08:19:24.184Z,22.70
2017-06-18T08:21:51.739Z,21.80
2017-06-18T08:24:20.083Z,21.00
2017-06-18T08:26:47.596Z,21.00
2017-06-18T08:29:15.105Z,21.20
2017-06-18T08:31:42.724Z,21.70
2017-06-18T08:34:10.245Z,22.40
2017-06-18T08:36:37.769Z,23.10
2017-06-18T08:39:05.380Z,23.80
2017-06-18T08:41:34.432Z,24.20
2017-06-18T08:44:01.956Z,24.30
2017-06-18T08:46:29.507Z,24.70
2017-06-18T08:48:57.831Z,24.60
2017-06-18T08:51:25.348Z,24.60
2017-06-18T08:53:53.699Z,24.80
2017-06-18T08:56:21.219Z,24.70
2017-06-18T08:58:48.735Z,24.20
2017-06-18T09:01:16.287Z,24.70
2017-06-18T09:03:43.806Z,24.30
2017-06-18T09:06:11.324Z,23.50
2017-06-18T09:08:39.667Z,23.90
2017-06-18T09:11:07.172Z,23.90
2017-06-18T09:13:35.457Z,25.40
2017-06-18T09:16:03.028Z,25.30
2017-06-18T09:18:30.545Z,25.20
2017-06-18T09:20:58.093Z,25.10
2017-06-18T09:23:25.655Z,25.20
2017-06-18T09:25:53.172Z,24.70
2017-06-18T09:28:20.700Z,23.80
2017-06-18T09:30:49.031Z,23.60
2017-06-18T09:33:16.551Z,23.50
2017-06-18T09:35:44.067Z,23.80
2017-06-18T09:38:11.679Z,23.60
2017-06-18T09:40:39.254Z,24.20
2017-06-18T09:43:06.783Z,24.80
2017-06-18T09:45:35.123Z,25.60
2017-06-18T09:48:02.684Z,25.50
2017-06-18T09:50:30.225Z,25.70
2017-06-18T09:52:57.784Z,25.30
2017-06-18T09:55:25.300Z,24.90
2017-06-18T09:57:53.587Z,23.90
2017-06-18T10:00:21.940Z,24.30
2017-06-18T10:02:49.483Z,24.30
2017-06-18T10:05:17.002Z,24.30
2017-06-18T10:07:44.579Z,24.40
2017-06-18T10:10:12.103Z,24.80
2017-06-18T10:12:40.389Z,25.00
2017-06-18T10:15:07.956Z,24.90
2017-06-18T10:17:35.519Z,25.50
2017-06-18T10:20:03.036Z,25.20
2017-06-18T10:22:30.599Z,25.20
2017-06-18T10:24:58.117Z,24.20
2017-06-18T10:27:25.628Z,23.50
2017-06-18T10:29:53.959Z,22.60
2017-06-18T10:32:21.480Z,22.60
2017-06-18T10:34:49.032Z,22.50
2017-06-18T10:37:16.622Z,23.00
2017-06-18T10:39:44.164Z,23.50
2017-06-18T10:42:11.688Z,24.10
2017-06-18T10:44:39.247Z,24.20
2017-06-18T10:47:06.760Z,23.90
2017-06-18T10:49:34.269Z,23.80
2017-06-18T10:52:01.855Z,24.20
2017-06-18T10:54:29.368Z,24.70
2017-06-18T10:56:56.884Z,25.40
2017-06-18T10:59:24.468Z,24.70
2017-06-18T11:01:51.980Z,24.50
2017-06-18T11:04:19.516Z,24.60
2017-06-18T11:06:47.067Z,25.20
2017-06-18T11:09:14.648Z,25.30
2017-06-18T11:11:42.175Z,25.80
2017-06-18T11:14:09.736Z,25.80
2017-06-18T11:16:37.250Z,25.60
2017-06-18T11:19:04.760Z,25.10
2017-06-18T11:21:32.325Z,25.40
2017-06-18T11:23:59.844Z,26.10
2017-06-18T11:26:28.119Z,26.10
2017-06-18T11:28:56.444Z,25.80
2017-06-18T11:31:23.947Z,25.70
2017-06-18T11:33:52.236Z,25.00
2017-06-18T11:36:19.799Z,25.00
2017-06-18T11:38:47.311Z,25.30
2017-06-18T11:41:14.828Z,25.10
2017-06-18T11:43:42.420Z,25.00
2017-06-18T11:46:09.940Z,25.90
2017-06-18T11:48:37.480Z,26.80
2017-06-18T11:51:05.089Z,26.50
2017-06-18T11:53:32.600Z,26.90
2017-06-18T11:56:00.890Z,26.50
2017-06-18T11:58:29.292Z,25.70
2017-06-18T12:00:56.816Z,25.60
2017-06-18T12:03:24.336Z,25.50
2017-06-18T12:05:51.899Z,25.20
2017-06-18T12:08:19.420Z,25.10
2017-06-18T12:10:46.940Z,25.00
2017-06-18T12:13:14.507Z,25.80
2017-06-18T12:15:42.053Z,25.60
2017-06-18T12:18:09.752Z,26.00
2017-06-18T12:20:37.316Z,25.70
2017-06-18T12:23:04.832Z,25.50
2017-06-18T12:25:32.342Z,25.80
2017-06-18T12:27:59.910Z,26.10
2017-06-18T12:30:27.545Z,26.30
2017-06-18T12:32:55.119Z,25.70
2017-06-18T12:35:22.758Z,24.50
2017-06-18T12:37:50.284Z,24.70
2017-06-18T12:40:17.851Z,24.50
2017-06-18T12:42:45.408Z,24.40
2017-06-18T12:45:12.947Z,24.30
2017-06-18T12:47:40.618Z,23.90
2017-06-18T12:50:08.180Z,24.00
2017-06-18T12:52:35.699Z,24.40
2017-06-18T12:55:03.210Z,24.10
2017-06-18T12:57:30.799Z,23.90
2017-06-18T12:59:58.315Z,24.00
2017-06-18T13:02:25.839Z,23.90
2017-06-18T13:04:53.430Z,24.00
2017-06-18T13:07:20.963Z,24.10
2017-06-18T13:09:49.255Z,23.20
2017-06-18T13:12:16.832Z,23.20
2017-06-18T13:14:44.354Z,23.40
2017-06-18T13:17:12.631Z,23.50
2017-06-18T13:19:40.957Z,23.40
2017-06-18T13:22:08.477Z,23.40
2017-06-18T13:24:36.000Z,23.30
2017-06-18T13:27:03.580Z,23.30
2017-06-18T13:29:31.140Z,23.40
2017-06-18T13:31:58.656Z,23.30
2017-06-18T13:34:26.251Z,23.30
2017-06-18T13:36:53.761Z,23.40
2017-06-18T13:39:21.280Z,23.50
2017-06-18T13:41:48.837Z,23.40
2017-06-18T13:44:16.360Z,23.50
2017-06-18T13:46:43.880Z,23.60
2017-06-18T13:49:11.473Z,23.60
2017-06-18T13:51:38.983Z,23.50
2017-06-18T13:54:06.507Z,23.50
2017-06-18T13:56:34.087Z,23.40
2017-06-18T13:59:01.850Z,23.30
2017-06-18T14:01:29.380Z,23.10
2017-06-18T14:03:56.946Z,22.90
2017-06-18T14:06:24.475Z,23.00
2017-06-18T14:08:51.991Z,23.20
2017-06-18T14:11:19.596Z,23.30
2017-06-18T14:13:47.103Z,23.50
2017-06-18T14:16:14.624Z,23.20
2017-06-18T14:18:42.196Z,23.00
2017-06-18T14:21:09.719Z,22.80
2017-06-18T14:23:37.232Z,23.00
2017-06-18T14:26:04.792Z,23.00
2017-06-18T14:28:32.310Z,23.00
2017-06-18T14:31:00.600Z,23.30
2017-06-18T14:33:28.187Z,23.30
2017-06-18T14:35:55.709Z,23.20
2017-06-18T14:38:23.232Z,23.30
2017-06-18T14:40:50.791Z,23.40
2017-06-18T14:43:18.317Z,23.40
2017-06-18T14:45:45.831Z,23.40
2017-06-18T14:48:14.191Z,23.20
2017-06-18T14:50:41.703Z,23.10
2017-06-18T14:53:09.231Z,23.20
2017-06-18T14:55:37.556Z,23.00
2017-06-18T14:58:05.068Z,22.90
2017-06-18T15:00:33.364Z,23.00
2017-06-18T15:03:00.940Z,22.90
2017-06-18T15:05:28.452Z,23.00
2017-06-18T15:07:56.006Z,23.10
2017-06-18T15:10:23.570Z,23.10
2017-06-18T15:12:51.152Z,23.10
2017-06-18T15:15:19.450Z,23.20
2017-06-18T15:17:47.026Z,23.20
2017-06-18T15:20:14.559Z,23.30
2017-06-18T15:22:42.853Z,23.10
2017-06-18T15:25:10.446Z,23.00
2017-06-18T15:27:37.970Z,22.80
2017-06-18T15:30:05.508Z,22.70
2017-06-18T15:32:33.095Z,22.70
2017-06-18T15:35:00.612Z,22.60
2017-06-18T15:37:28.128Z,22.60
2017-06-18T15:39:55.687Z,22.70
2017-06-18T15:42:23.200Z,22.70
2017-06-18T15:44:50.733Z,22.70
2017-06-18T15:47:18.305Z,22.70
2017-06-18T15:49:45.824Z,22.70
2017-06-18T15:52:13.346Z,22.70
2017-06-18T15:54:41.667Z,22.70
2017-06-18T15:57:09.187Z,22.60
2017-06-18T15:59:37.481Z,22.60
2017-06-18T16:02:05.380Z,22.50
2017-06-18T16:04:32.919Z,22.60
2017-06-18T16:07:00.532Z,22.50
2017-06-18T16:09:28.146Z,22.50
2017-06-18T16:11:55.673Z,22.60
2017-06-18T16:14:23.955Z,22.60
2017-06-18T16:16:51.540Z,22.60
2017-06-18T16:19:19.066Z,22.60
2017-06-18T16:21:47.355Z,22.60
2017-06-18T16:24:14.911Z,22.50
2017-06-18T16:26:43.190Z,22.40
2017-06-18T16:29:11.475Z,22.40
2017-06-18T16:31:39.811Z,22.50
2017-06-18T16:34:07.321Z,22.50
2017-06-18T16:36:34.911Z,22.50
2017-06-18T16:39:02.467Z,22.50
2017-06-18T16:41:29.991Z,22.50
2017-06-18T16:43:58.270Z,22.40
2017-06-18T16:46:25.884Z,22.40
2017-06-18T16:48:53.409Z,22.40
2017-06-18T16:51:20.958Z,22.40
2017-06-18T16:53:48.511Z,22.40
2017-06-18T16:56:16.804Z,22.40
2017-06-18T16:58:44.319Z,22.40
2017-06-18T17:01:11.915Z,22.50
2017-06-18T17:03:39.437Z,22.50
2017-06-18T17:06:07.003Z,22.30
2017-06-18T17:08:34.560Z,22.20
2017-06-18T17:11:02.072Z,22.10
2017-06-18T17:13:29.588Z,22.20
2017-06-18T17:15:57.148Z,22.30
2017-06-18T17:18:24.665Z,22.20
2017-06-18T17:20:52.179Z,22.20
2017-06-18T17:23:20.507Z,22.20
2017-06-18T17:25:48.027Z,22.20
2017-06-18T17:28:16.476Z,22.20
2017-06-18T17:30:44.055Z,22.10
2017-06-18T17:33:11.568Z,22.20
2017-06-18T17:35:39.078Z,22.00
2017-06-18T17:38:06.651Z,22.00
2017-06-18T17:40:37.708Z,21.80
2017-06-18T17:43:05.302Z,21.80
2017-06-18T17:45:32.835Z,21.80
2017-06-18T17:48:00.344Z,21.90
2017-06-18T17:50:27.956Z,22.00
2017-06-18T17:52:55.465Z,22.00
2017-06-18T17:55:22.977Z,21.90
2017-06-18T17:57:50.523Z,21.80
2017-06-18T18:00:18.030Z,21.70
2017-06-18T18:02:45.548Z,21.60
2017-06-18T18:05:13.095Z,21.50
2017-06-18T18:07:40.646Z,21.40
2017-06-18T18:10:08.175Z,21.40
2017-06-18T18:12:35.771Z,21.40
2017-06-18T18:15:03.330Z,21.30
2017-06-18T18:17:30.850Z,21.30
2017-06-18T18:19:58.424Z,21.40
2017-06-18T18:22:25.945Z,21.30
2017-06-18T18:24:53.459Z,21.20
2017-06-18T18:27:21.047Z,21.20
2017-06-18T18:29:48.567Z,21.20
2017-06-18T18:32:16.066Z,21.10
2017-06-18T18:34:43.649Z,21.10
2017-06-18T18:37:11.171Z,21.10
2017-06-18T18:39:38.700Z,21.10
2017-06-18T18:42:06.269Z,21.10
2017-06-18T18:44:33.796Z,21.00
2017-06-18T18:47:01.311Z,20.80
2017-06-18T18:49:29.431Z,20.70
2017-06-18T18:51:56.953Z,20.90
2017-06-18T18:54:25.448Z,20.70
2017-06-18T18:56:53.021Z,20.60
2017-06-18T18:59:20.576Z,20.70
2017-06-18T19:01:48.104Z,20.60
2017-06-18T19:04:16.426Z,20.50
2017-06-18T19:06:43.944Z,20.40
2017-06-18T19:09:12.230Z,20.40
2017-06-18T19:11:39.786Z,20.30
2017-06-18T19:14:08.072Z,20.20
2017-06-18T19:16:35.679Z,20.20
2017-06-18T19:19:03.254Z,20.30
2017-06-18T19:21:30.777Z,20.30
2017-06-18T19:23:58.363Z,20.20
2017-06-18T19:26:25.912Z,20.20
2017-06-18T19:28:53.582Z,20.20
2017-06-18T19:31:21.093Z,20.10
2017-06-18T19:33:48.767Z,20.00
2017-06-18T19:36:16.285Z,20.00
2017-06-18T19:38:43.805Z,20.00
2017-06-18T19:41:11.581Z,19.90
2017-06-18T19:43:39.116Z,20.00
2017-06-18T19:46:06.715Z,19.90
2017-06-18T19:48:34.272Z,19.80
2017-06-18T19:51:01.905Z,19.80
2017-06-18T19:53:29.451Z,19.80
2017-06-18T19:55:57.012Z,19.80
2017-06-18T19:58:24.537Z,19.70
2017-06-18T20:00:52.849Z,19.60
2017-06-18T20:03:20.413Z,19.60
2017-06-18T20:05:47.931Z,19.70
2017-06-18T20:08:15.447Z,19.50
2017-06-18T20:10:42.999Z,19.60
2017-06-18T20:13:10.515Z,19.50
2017-06-18T20:15:38.027Z,19.60
2017-06-18T20:18:05.588Z,19.50
2017-06-18T20:20:33.127Z,19.50
2017-06-18T20:23:00.672Z,19.40
2017-06-18T20:25:28.992Z,19.30
2017-06-18T20:27:56.579Z,19.20
2017-06-18T20:30:24.089Z,19.20
2017-06-18T20:32:51.669Z,19.10
2017-06-18T20:35:19.178Z,19.00
2017-06-18T20:37:46.693Z,19.10
2017-06-18T20:40:24.591Z,19.00
2017-06-18T20:42:52.104Z,19.00
2017-06-18T20:45:20.424Z,19.00
2017-06-18T20:47:47.995Z,18.90
2017-06-18T20:50:15.529Z,18.80
2017-06-18T20:52:44.440Z,18.70
2017-06-18T20:55:12.513Z,18.70
2017-06-18T20:57:40.071Z,18.60
2017-06-18T21:00:07.599Z,18.80
2017-06-18T21:02:35.928Z,18.70
2017-06-18T21:05:03.448Z,18.70
2017-06-18T21:07:30.968Z,18.70
2017-06-18T21:09:58.901Z,18.60
2017-06-18T21:12:26.445Z,18.50
2017-06-18T21:14:53.963Z,18.40
2017-06-18T21:17:21.536Z,18.40
2017-06-18T21:19:50.419Z,18.30
2017-06-18T21:22:17.977Z,18.20
2017-06-18T21:24:45.545Z,18.00
2017-06-18T21:27:13.826Z,17.70
2017-06-18T21:29:41.373Z,17.70
2017-06-18T21:32:09.110Z,17.80
2017-06-18T21:34:36.636Z,17.60
2017-06-18T21:37:04.163Z,17.60
2017-06-18T21:39:31.724Z,17.40
2017-06-18T21:41:59.228Z,17.40
2017-06-18T21:44:26.746Z,17.10
2017-06-18T21:46:54.343Z,17.10
2017-06-18T21:49:22.123Z,17.00
2017-06-18T21:51:49.643Z,16.80
2017-06-18T21:54:18.027Z,16.90
2017-06-18T21:56:49.637Z,16.90
2017-06-18T21:59:17.219Z,16.70
2017-06-18T22:01:44.767Z,16.70
2017-06-18T22:04:14.119Z,16.70
2017-06-18T22:06:42.234Z,16.70
2017-06-18T22:09:09.801Z,16.80
2017-06-18T22:11:37.320Z,16.60
2017-06-18T22:14:04.880Z,16.70
2017-06-18T22:16:32.485Z,16.70
2017-06-18T22:19:00.060Z,16.60
2017-06-18T22:21:27.622Z,16.50
2017-06-18T22:23:55.644Z,16.20
2017-06-18T22:26:23.265Z,16.20
2017-06-18T22:28:50.865Z,16.10
2017-06-18T22:31:18.380Z,16.10
2017-06-18T22:33:45.918Z,16.10
2017-06-18T22:36:13.556Z,16.10
2017-06-18T22:38:41.071Z,16.30
2017-06-18T22:41:08.585Z,16.40
2017-06-18T22:43:36.145Z,16.40
2017-06-18T22:46:03.753Z,16.40
2017-06-18T22:48:31.326Z,16.40
2017-06-18T22:50:58.981Z,16.40
2017-06-18T22:53:27.328Z,16.30
2017-06-18T22:55:55.093Z,16.30
2017-06-18T22:58:22.934Z,16.30
2017-06-18T23:00:51.106Z,16.30
2017-06-18T23:03:18.615Z,16.10
2017-06-18T23:05:46.239Z,16.00
2017-06-18T23:08:13.851Z,16.10
2017-06-18T23:10:41.377Z,16.00
2017-06-18T23:13:09.051Z,16.00
2017-06-18T23:15:36.563Z,15.70
2017-06-18T23:18:04.075Z,15.60
2017-06-18T23:20:31.671Z,15.40
2017-06-18T23:22:59.225Z,15.20
2017-06-18T23:25:26.831Z,15.40
2017-06-18T23:27:54.384Z,15.40
2017-06-18T23:30:21.919Z,15.40
2017-06-18T23:32:49.431Z,15.30
2017-06-18T23:35:16.999Z,15.30
2017-06-18T23:37:44.530Z,15.20
2017-06-18T23:40:12.300Z,15.10
2017-06-18T23:42:39.880Z,15.10
2017-06-18T23:45:07.724Z,15.20
2017-06-18T23:47:35.389Z,15.00
2017-06-18T23:50:02.957Z,14.90
2017-06-18T23:52:30.467Z,15.00
2017-06-18T23:54:57.976Z,15.00
2017-06-18T23:57:25.675Z,15.00
2017-06-18T23:59:54.085Z,14.80
